sensor_id;sensor_type;location;lat;lon;timestamp;temperature;humidity
11647;DHT22;5880;52.342;9.662;2022-10-14T00:01:29;16.60;66.20
11647;DHT22;5880;52.342;9.662;2022-10-14T00:03:58;16.60;66.20
11647;DHT22;5880;52.342;9.662;2022-10-14T00:06:27;16.60;66.30
11647;DHT22;5880;52.342;9.662;2022-10-14T00:08:58;16.60;66.40
11647;DHT22;5880;52.342;9.662;2022-10-14T00:11:27;16.60;66.30
11647;DHT22;5880;52.342;9.662;2022-10-14T00:14:07;16.60;66.40
11647;DHT22;5880;52.342;9.662;2022-10-14T00:16:38;16.60;67.10
11647;DHT22;5880;52.342;9.662;2022-10-14T00:19:05;16.60;66.30
11647;DHT22;5880;52.342;9.662;2022-10-14T00:21:32;16.60;66.40
11647;DHT22;5880;52.342;9.662;2022-10-14T00:23:59;16.60;66.50
11647;DHT22;5880;52.342;9.662;2022-10-14T00:26:33;16.60;66.40
11647;DHT22;5880;52.342;9.662;2022-10-14T00:29:03;16.60;66.80
11647;DHT22;5880;52.342;9.662;2022-10-14T00:31:32;16.60;66.50
11647;DHT22;5880;52.342;9.662;2022-10-14T00:33:59;16.60;66.50
11647;DHT22;5880;52.342;9.662;2022-10-14T00:36:25;16.60;66.50
11647;DHT22;5880;52.342;9.662;2022-10-14T00:38:52;16.60;66.50
11647;DHT22;5880;52.342;9.662;2022-10-14T00:41:28;16.60;66.60
11647;DHT22;5880;52.342;9.662;2022-10-14T00:44:02;16.60;67.10
11647;DHT22;5880;52.342;9.662;2022-10-14T00:46:39;16.50;66.80
11647;DHT22;5880;52.342;9.662;2022-10-14T00:49:16;16.60;67.20
11647;DHT22;5880;52.342;9.662;2022-10-14T00:51:51;16.60;67.10
11647;DHT22;5880;52.342;9.662;2022-10-14T00:54:33;16.60;67.10
11647;DHT22;5880;52.342;9.662;2022-10-14T00:57:02;16.60;67.00
11647;DHT22;5880;52.342;9.662;2022-10-14T00:59:30;16.50;66.70
11647;DHT22;5880;52.342;9.662;2022-10-14T01:01:57;16.60;66.80
11647;DHT22;5880;52.342;9.662;2022-10-14T01:04:24;16.60;66.80
11647;DHT22;5880;52.342;9.662;2022-10-14T01:07:03;16.60;66.90
11647;DHT22;5880;52.342;9.662;2022-10-14T01:10:18;16.50;67.40
11647;DHT22;5880;52.342;9.662;2022-10-14T01:16:07;16.60;67.70
11647;DHT22;5880;52.342;9.662;2022-10-14T01:21:48;16.60;66.80
11647;DHT22;5880;52.342;9.662;2022-10-14T01:24:41;16.60;67.80
11647;DHT22;5880;52.342;9.662;2022-10-14T01:28:01;16.60;66.80
11647;DHT22;5880;52.342;9.662;2022-10-14T01:30:26;16.60;67.60
11647;DHT22;5880;52.342;9.662;2022-10-14T01:33:23;16.60;66.90
11647;DHT22;5880;52.342;9.662;2022-10-14T01:38:34;16.60;67.40
11647;DHT22;5880;52.342;9.662;2022-10-14T01:43:46;16.60;67.90
11647;DHT22;5880;52.342;9.662;2022-10-14T01:46:16;16.60;67.20
11647;DHT22;5880;52.342;9.662;2022-10-14T01:48:48;16.60;67.30
11647;DHT22;5880;52.342;9.662;2022-10-14T01:51:22;16.50;67.40
11647;DHT22;5880;52.342;9.662;2022-10-14T01:54:14;16.60;67.60
11647;DHT22;5880;52.342;9.662;2022-10-14T01:56:45;16.60;68.30
11647;DHT22;5880;52.342;9.662;2022-10-14T01:59:13;16.60;67.30
11647;DHT22;5880;52.342;9.662;2022-10-14T02:01:42;16.60;67.40
11647;DHT22;5880;52.342;9.662;2022-10-14T02:04:18;16.60;67.40
11647;DHT22;5880;52.342;9.662;2022-10-14T02:09:50;16.60;67.80
11647;DHT22;5880;52.342;9.662;2022-10-14T02:13:07;16.60;67.70
11647;DHT22;5880;52.342;9.662;2022-10-14T02:18:39;16.60;67.40
11647;DHT22;5880;52.342;9.662;2022-10-14T02:21:40;16.60;67.70
11647;DHT22;5880;52.342;9.662;2022-10-14T02:24:28;16.60;68.20
11647;DHT22;5880;52.342;9.662;2022-10-14T02:27:03;16.60;67.50
11647;DHT22;5880;52.342;9.662;2022-10-14T02:29:35;16.60;67.90
11647;DHT22;5880;52.342;9.662;2022-10-14T02:32:04;16.60;67.80
11647;DHT22;5880;52.342;9.662;2022-10-14T02:34:33;16.60;67.80
11647;DHT22;5880;52.342;9.662;2022-10-14T02:37:02;16.60;67.80
11647;DHT22;5880;52.342;9.662;2022-10-14T02:39:36;16.70;68.00
11647;DHT22;5880;52.342;9.662;2022-10-14T02:42:06;16.70;68.50
11647;DHT22;5880;52.342;9.662;2022-10-14T02:44:32;16.60;67.90
11647;DHT22;5880;52.342;9.662;2022-10-14T02:46:58;16.70;68.00
11647;DHT22;5880;52.342;9.662;2022-10-14T02:49:23;16.70;68.00
11647;DHT22;5880;52.342;9.662;2022-10-14T02:51:49;16.70;68.10
11647;DHT22;5880;52.342;9.662;2022-10-14T02:54:15;16.70;68.10
11647;DHT22;5880;52.342;9.662;2022-10-14T02:56:40;16.70;68.10
11647;DHT22;5880;52.342;9.662;2022-10-14T02:59:06;16.70;68.10
11647;DHT22;5880;52.342;9.662;2022-10-14T03:01:32;16.70;68.10
11647;DHT22;5880;52.342;9.662;2022-10-14T03:03:58;16.70;68.10
11647;DHT22;5880;52.342;9.662;2022-10-14T03:06:23;16.70;68.10
11647;DHT22;5880;52.342;9.662;2022-10-14T03:08:49;16.70;68.10
11647;DHT22;5880;52.342;9.662;2022-10-14T03:11:15;16.70;68.10
11647;DHT22;5880;52.342;9.662;2022-10-14T03:13:41;16.70;68.10
11647;DHT22;5880;52.342;9.662;2022-10-14T03:16:07;16.70;68.10
11647;DHT22;5880;52.342;9.662;2022-10-14T03:18:33;16.70;68.20
11647;DHT22;5880;52.342;9.662;2022-10-14T03:20:58;16.70;68.20
11647;DHT22;5880;52.342;9.662;2022-10-14T03:23:24;16.70;68.30
11647;DHT22;5880;52.342;9.662;2022-10-14T03:25:50;16.70;68.20
11647;DHT22;5880;52.342;9.662;2022-10-14T03:28:15;16.70;68.20
11647;DHT22;5880;52.342;9.662;2022-10-14T03:30:41;16.70;68.20
11647;DHT22;5880;52.342;9.662;2022-10-14T03:33:07;16.70;68.30
11647;DHT22;5880;52.342;9.662;2022-10-14T03:35:33;16.70;68.30
11647;DHT22;5880;52.342;9.662;2022-10-14T03:37:58;16.70;68.30
11647;DHT22;5880;52.342;9.662;2022-10-14T03:40:27;16.70;68.30
11647;DHT22;5880;52.342;9.662;2022-10-14T03:42:55;16.70;68.30
11647;DHT22;5880;52.342;9.662;2022-10-14T03:45:22;16.70;68.30
11647;DHT22;5880;52.342;9.662;2022-10-14T03:47:48;16.70;68.30
11647;DHT22;5880;52.342;9.662;2022-10-14T03:50:13;16.70;68.30
11647;DHT22;5880;52.342;9.662;2022-10-14T03:52:39;16.70;68.40
11647;DHT22;5880;52.342;9.662;2022-10-14T03:55:06;16.70;68.40
11647;DHT22;5880;52.342;9.662;2022-10-14T03:57:32;16.60;68.40
11647;DHT22;5880;52.342;9.662;2022-10-14T03:59:57;16.60;68.30
11647;DHT22;5880;52.342;9.662;2022-10-14T04:02:23;16.60;68.30
11647;DHT22;5880;52.342;9.662;2022-10-14T04:04:49;16.60;68.40
11647;DHT22;5880;52.342;9.662;2022-10-14T04:07:14;16.60;68.50
11647;DHT22;5880;52.342;9.662;2022-10-14T04:09:40;16.60;68.40
11647;DHT22;5880;52.342;9.662;2022-10-14T04:12:06;16.60;68.50
11647;DHT22;5880;52.342;9.662;2022-10-14T04:14:31;16.60;68.60
11647;DHT22;5880;52.342;9.662;2022-10-14T04:16:58;16.60;68.60
11647;DHT22;5880;52.342;9.662;2022-10-14T04:19:23;16.60;68.50
11647;DHT22;5880;52.342;9.662;2022-10-14T04:21:49;16.60;68.40
11647;DHT22;5880;52.342;9.662;2022-10-14T04:24:15;16.60;68.30
11647;DHT22;5880;52.342;9.662;2022-10-14T04:26:40;16.60;68.20
11647;DHT22;5880;52.342;9.662;2022-10-14T04:29:06;16.60;68.20
11647;DHT22;5880;52.342;9.662;2022-10-14T04:31:32;16.50;68.20
11647;DHT22;5880;52.342;9.662;2022-10-14T04:33:57;17.00;68.40
11647;DHT22;5880;52.342;9.662;2022-10-14T04:36:23;16.50;68.30
11647;DHT22;5880;52.342;9.662;2022-10-14T04:38:49;16.50;68.40
11647;DHT22;5880;52.342;9.662;2022-10-14T04:41:15;16.50;68.40
11647;DHT22;5880;52.342;9.662;2022-10-14T04:43:40;16.50;68.40
11647;DHT22;5880;52.342;9.662;2022-10-14T04:46:06;16.50;68.40
11647;DHT22;5880;52.342;9.662;2022-10-14T04:48:33;16.40;68.30
11647;DHT22;5880;52.342;9.662;2022-10-14T04:50:58;16.40;68.30
11647;DHT22;5880;52.342;9.662;2022-10-14T04:53:24;16.40;68.30
11647;DHT22;5880;52.342;9.662;2022-10-14T04:55:50;16.40;68.30
11647;DHT22;5880;52.342;9.662;2022-10-14T04:58:16;16.30;68.30
11647;DHT22;5880;52.342;9.662;2022-10-14T05:00:42;16.40;68.40
11647;DHT22;5880;52.342;9.662;2022-10-14T05:03:07;16.30;68.60
11647;DHT22;5880;52.342;9.662;2022-10-14T05:05:33;16.30;68.40
11647;DHT22;5880;52.342;9.662;2022-10-14T05:07:59;16.30;68.40
11647;DHT22;5880;52.342;9.662;2022-10-14T05:10:25;16.30;68.30
11647;DHT22;5880;52.342;9.662;2022-10-14T05:12:51;16.20;68.30
11647;DHT22;5880;52.342;9.662;2022-10-14T05:15:18;16.20;68.10
11647;DHT22;5880;52.342;9.662;2022-10-14T05:17:44;16.20;68.00
11647;DHT22;5880;52.342;9.662;2022-10-14T05:20:11;16.20;67.90
11647;DHT22;5880;52.342;9.662;2022-10-14T05:22:37;16.10;67.90
11647;DHT22;5880;52.342;9.662;2022-10-14T05:25:03;16.10;67.80
11647;DHT22;5880;52.342;9.662;2022-10-14T05:27:29;16.00;67.70
11647;DHT22;5880;52.342;9.662;2022-10-14T05:29:55;16.10;67.70
11647;DHT22;5880;52.342;9.662;2022-10-14T05:32:22;16.00;67.60
11647;DHT22;5880;52.342;9.662;2022-10-14T05:34:48;15.90;67.70
11647;DHT22;5880;52.342;9.662;2022-10-14T05:37:13;15.90;67.80
11647;DHT22;5880;52.342;9.662;2022-10-14T05:39:39;15.90;67.90
11647;DHT22;5880;52.342;9.662;2022-10-14T05:42:05;15.90;68.00
11647;DHT22;5880;52.342;9.662;2022-10-14T05:44:30;15.80;68.00
11647;DHT22;5880;52.342;9.662;2022-10-14T05:46:56;15.80;68.10
11647;DHT22;5880;52.342;9.662;2022-10-14T05:49:22;15.80;68.20
11647;DHT22;5880;52.342;9.662;2022-10-14T05:51:47;15.80;68.20
11647;DHT22;5880;52.342;9.662;2022-10-14T05:54:13;15.80;68.20
11647;DHT22;5880;52.342;9.662;2022-10-14T05:56:39;15.80;68.30
11647;DHT22;5880;52.342;9.662;2022-10-14T05:59:05;15.70;68.30
11647;DHT22;5880;52.342;9.662;2022-10-14T06:01:30;15.80;68.30
11647;DHT22;5880;52.342;9.662;2022-10-14T06:03:59;15.80;68.40
11647;DHT22;5880;52.342;9.662;2022-10-14T06:06:25;15.80;68.40
11647;DHT22;5880;52.342;9.662;2022-10-14T06:08:50;15.70;68.60
11647;DHT22;5880;52.342;9.662;2022-10-14T06:11:16;15.70;68.60
11647;DHT22;5880;52.342;9.662;2022-10-14T06:13:42;15.80;68.70
11647;DHT22;5880;52.342;9.662;2022-10-14T06:16:08;15.80;68.90
11647;DHT22;5880;52.342;9.662;2022-10-14T06:18:35;15.70;69.00
11647;DHT22;5880;52.342;9.662;2022-10-14T06:21:02;15.80;69.10
11647;DHT22;5880;52.342;9.662;2022-10-14T06:23:29;15.80;69.20
11647;DHT22;5880;52.342;9.662;2022-10-14T06:25:55;15.80;69.20
11647;DHT22;5880;52.342;9.662;2022-10-14T06:28:21;15.80;69.30
11647;DHT22;5880;52.342;9.662;2022-10-14T06:30:50;15.80;69.30
11647;DHT22;5880;52.342;9.662;2022-10-14T06:33:17;15.90;69.80
11647;DHT22;5880;52.342;9.662;2022-10-14T06:35:43;15.90;69.50
11647;DHT22;5880;52.342;9.662;2022-10-14T06:38:08;15.90;69.50
11647;DHT22;5880;52.342;9.662;2022-10-14T06:40:35;15.90;69.50
11647;DHT22;5880;52.342;9.662;2022-10-14T06:43:01;16.00;69.60
11647;DHT22;5880;52.342;9.662;2022-10-14T06:45:27;16.00;69.60
11647;DHT22;5880;52.342;9.662;2022-10-14T06:47:53;16.00;69.70
11647;DHT22;5880;52.342;9.662;2022-10-14T06:50:19;16.00;69.70
11647;DHT22;5880;52.342;9.662;2022-10-14T06:52:45;16.00;69.70
11647;DHT22;5880;52.342;9.662;2022-10-14T06:55:11;16.10;69.90
11647;DHT22;5880;52.342;9.662;2022-10-14T06:57:37;16.10;69.90
11647;DHT22;5880;52.342;9.662;2022-10-14T07:00:04;16.10;69.80
11647;DHT22;5880;52.342;9.662;2022-10-14T07:02:31;16.20;69.80
11647;DHT22;5880;52.342;9.662;2022-10-14T07:04:57;16.20;69.70
11647;DHT22;5880;52.342;9.662;2022-10-14T07:07:22;16.20;69.70
11647;DHT22;5880;52.342;9.662;2022-10-14T07:09:48;16.20;69.80
11647;DHT22;5880;52.342;9.662;2022-10-14T07:12:14;16.20;69.80
11647;DHT22;5880;52.342;9.662;2022-10-14T07:14:40;16.30;69.90
11647;DHT22;5880;52.342;9.662;2022-10-14T07:17:06;16.30;70.00
11647;DHT22;5880;52.342;9.662;2022-10-14T07:19:33;16.30;70.00
11647;DHT22;5880;52.342;9.662;2022-10-14T07:21:58;16.30;70.00
11647;DHT22;5880;52.342;9.662;2022-10-14T07:24:24;16.30;70.00
11647;DHT22;5880;52.342;9.662;2022-10-14T07:26:50;16.30;70.00
11647;DHT22;5880;52.342;9.662;2022-10-14T07:29:16;16.40;70.00
11647;DHT22;5880;52.342;9.662;2022-10-14T07:31:42;16.40;70.10
11647;DHT22;5880;52.342;9.662;2022-10-14T07:34:08;16.40;70.10
11647;DHT22;5880;52.342;9.662;2022-10-14T07:36:34;16.40;70.00
11647;DHT22;5880;52.342;9.662;2022-10-14T07:39:00;16.50;70.20
11647;DHT22;5880;52.342;9.662;2022-10-14T07:41:26;16.50;70.20
11647;DHT22;5880;52.342;9.662;2022-10-14T07:43:56;16.50;71.00
11647;DHT22;5880;52.342;9.662;2022-10-14T07:46:27;16.50;70.40
11647;DHT22;5880;52.342;9.662;2022-10-14T07:48:57;16.50;70.30
11647;DHT22;5880;52.342;9.662;2022-10-14T07:51:25;16.60;70.30
11647;DHT22;5880;52.342;9.662;2022-10-14T07:53:53;16.60;70.30
11647;DHT22;5880;52.342;9.662;2022-10-14T07:56:20;16.60;70.40
11647;DHT22;5880;52.342;9.662;2022-10-14T07:58:47;16.60;70.40
11647;DHT22;5880;52.342;9.662;2022-10-14T08:01:13;16.70;70.60
11647;DHT22;5880;52.342;9.662;2022-10-14T08:03:41;16.70;70.70
11647;DHT22;5880;52.342;9.662;2022-10-14T08:06:07;16.70;70.70
11647;DHT22;5880;52.342;9.662;2022-10-14T08:08:34;16.80;70.80
11647;DHT22;5880;52.342;9.662;2022-10-14T08:13:41;16.80;71.00
11647;DHT22;5880;52.342;9.662;2022-10-14T08:16:25;16.90;70.70
11647;DHT22;5880;52.342;9.662;2022-10-14T08:18:57;16.90;71.30
11647;DHT22;5880;52.342;9.662;2022-10-14T08:21:25;16.90;70.60
11647;DHT22;5880;52.342;9.662;2022-10-14T08:23:52;17.00;70.50
11647;DHT22;5880;52.342;9.662;2022-10-14T08:26:34;17.00;70.50
11647;DHT22;5880;52.342;9.662;2022-10-14T08:29:03;17.00;71.10
11647;DHT22;5880;52.342;9.662;2022-10-14T08:31:31;17.00;70.60
11647;DHT22;5880;52.342;9.662;2022-10-14T08:33:58;17.10;70.70
11647;DHT22;5880;52.342;9.662;2022-10-14T08:36:24;17.10;70.60
11647;DHT22;5880;52.342;9.662;2022-10-14T08:38:51;17.10;70.70
11647;DHT22;5880;52.342;9.662;2022-10-14T08:41:47;17.10;70.80
11647;DHT22;5880;52.342;9.662;2022-10-14T08:47:15;17.30;70.90
11647;DHT22;5880;52.342;9.662;2022-10-14T08:50:04;17.30;70.60
11647;DHT22;5880;52.342;9.662;2022-10-14T08:52:53;17.30;70.50
11647;DHT22;5880;52.342;9.662;2022-10-14T08:55:38;17.40;70.40
11647;DHT22;5880;52.342;9.662;2022-10-14T08:58:37;17.40;70.40
11647;DHT22;5880;52.342;9.662;2022-10-14T09:03:47;17.50;71.10
11647;DHT22;5880;52.342;9.662;2022-10-14T09:06:25;17.60;71.10
11647;DHT22;5880;52.342;9.662;2022-10-14T09:11:55;17.70;71.10
11647;DHT22;5880;52.342;9.662;2022-10-14T09:14:32;17.80;71.20
11647;DHT22;5880;52.342;9.662;2022-10-14T09:17:07;17.90;70.70
11647;DHT22;5880;52.342;9.662;2022-10-14T09:22:15;18.10;70.10
11647;DHT22;5880;52.342;9.662;2022-10-14T09:24:41;18.00;69.80
11647;DHT22;5880;52.342;9.662;2022-10-14T09:27:15;18.10;69.70
11647;DHT22;5880;52.342;9.662;2022-10-14T09:29:59;18.20;69.50
11647;DHT22;5880;52.342;9.662;2022-10-14T09:32:35;18.20;69.20
11647;DHT22;5880;52.342;9.662;2022-10-14T09:35:23;18.20;69.10
11647;DHT22;5880;52.342;9.662;2022-10-14T09:37:53;18.30;69.20
11647;DHT22;5880;52.342;9.662;2022-10-14T09:40:33;18.30;69.10
11647;DHT22;5880;52.342;9.662;2022-10-14T09:48:43;18.30;69.20
11647;DHT22;5880;52.342;9.662;2022-10-14T09:51:23;18.40;69.90
11647;DHT22;5880;52.342;9.662;2022-10-14T09:53:54;18.50;69.90
11647;DHT22;5880;52.342;9.662;2022-10-14T09:56:29;18.60;69.70
11647;DHT22;5880;52.342;9.662;2022-10-14T09:59:16;18.80;68.90
11647;DHT22;5880;52.342;9.662;2022-10-14T10:01:52;18.80;68.90
11647;DHT22;5880;52.342;9.662;2022-10-14T10:04:42;18.90;69.40
11647;DHT22;5880;52.342;9.662;2022-10-14T10:07:32;19.10;70.40
11647;DHT22;5880;52.342;9.662;2022-10-14T10:10:08;19.30;69.20
11647;DHT22;5880;52.342;9.662;2022-10-14T10:12:42;19.60;70.30
11647;DHT22;5880;52.342;9.662;2022-10-14T10:15:18;19.80;70.40
11647;DHT22;5880;52.342;9.662;2022-10-14T10:17:46;20.00;68.80
11647;DHT22;5880;52.342;9.662;2022-10-14T10:20:24;20.10;69.60
11647;DHT22;5880;52.342;9.662;2022-10-14T10:22:55;20.40;67.70
11647;DHT22;5880;52.342;9.662;2022-10-14T10:25:25;20.50;68.10
11647;DHT22;5880;52.342;9.662;2022-10-14T10:27:56;20.70;67.10
11647;DHT22;5880;52.342;9.662;2022-10-14T10:30:24;20.70;66.30
11647;DHT22;5880;52.342;9.662;2022-10-14T10:33:21;20.70;65.50
11647;DHT22;5880;52.342;9.662;2022-10-14T10:39:02;20.70;64.10
11647;DHT22;5880;52.342;9.662;2022-10-14T10:42:19;20.70;63.70
11647;DHT22;5880;52.342;9.662;2022-10-14T10:50:53;20.40;63.50
11647;DHT22;5880;52.342;9.662;2022-10-14T10:56:21;20.30;63.80
11647;DHT22;5880;52.342;9.662;2022-10-14T11:05:26;20.10;63.90
11647;DHT22;5880;52.342;9.662;2022-10-14T11:11:30;19.90;63.80
11647;DHT22;5880;52.342;9.662;2022-10-14T11:18:02;19.90;64.20
11647;DHT22;5880;52.342;9.662;2022-10-14T11:21:07;19.80;64.50
11647;DHT22;5880;52.342;9.662;2022-10-14T11:23:54;19.90;64.40
11647;DHT22;5880;52.342;9.662;2022-10-14T11:27:20;19.90;64.40
11647;DHT22;5880;52.342;9.662;2022-10-14T11:29:42;19.90;64.50
11647;DHT22;5880;52.342;9.662;2022-10-14T11:35:52;20.00;64.40
11647;DHT22;5880;52.342;9.662;2022-10-14T11:38:58;20.00;64.70
11647;DHT22;5880;52.342;9.662;2022-10-14T11:44:34;20.00;63.70
11647;DHT22;5880;52.342;9.662;2022-10-14T11:47:24;20.00;64.30
11647;DHT22;5880;52.342;9.662;2022-10-14T11:50:00;20.00;64.10
11647;DHT22;5880;52.342;9.662;2022-10-14T11:53:23;20.00;64.40
11647;DHT22;5880;52.342;9.662;2022-10-14T11:55:44;20.00;63.90
11647;DHT22;5880;52.342;9.662;2022-10-14T11:58:23;20.00;64.20
11647;DHT22;5880;52.342;9.662;2022-10-14T12:00:53;20.00;63.80
11647;DHT22;5880;52.342;9.662;2022-10-14T12:06:42;20.00;63.40
11647;DHT22;5880;52.342;9.662;2022-10-14T12:09:27;20.00;63.50
11647;DHT22;5880;52.342;9.662;2022-10-14T12:12:06;20.00;63.20
11647;DHT22;5880;52.342;9.662;2022-10-14T12:14:41;20.00;63.60
11647;DHT22;5880;52.342;9.662;2022-10-14T12:17:36;19.90;63.70
11647;DHT22;5880;52.342;9.662;2022-10-14T12:20:30;19.90;63.30
11647;DHT22;5880;52.342;9.662;2022-10-14T12:23:02;19.90;63.30
11647;DHT22;5880;52.342;9.662;2022-10-14T12:25:39;19.80;63.50
11647;DHT22;5880;52.342;9.662;2022-10-14T12:28:13;19.80;63.40
11647;DHT22;5880;52.342;9.662;2022-10-14T12:30:41;19.80;63.60
11647;DHT22;5880;52.342;9.662;2022-10-14T12:33:13;19.80;63.70
11647;DHT22;5880;52.342;9.662;2022-10-14T12:38:11;19.70;63.40
11647;DHT22;5880;52.342;9.662;2022-10-14T12:40:37;19.70;63.60
11647;DHT22;5880;52.342;9.662;2022-10-14T12:43:17;19.70;63.60
11647;DHT22;5880;52.342;9.662;2022-10-14T12:46:12;19.70;63.20
11647;DHT22;5880;52.342;9.662;2022-10-14T12:48:50;19.70;63.10
11647;DHT22;5880;52.342;9.662;2022-10-14T12:51:19;19.70;63.20
11647;DHT22;5880;52.342;9.662;2022-10-14T12:53:51;19.70;63.50
11647;DHT22;5880;52.342;9.662;2022-10-14T12:56:41;19.70;63.50
11647;DHT22;5880;52.342;9.662;2022-10-14T12:59:35;19.70;63.30
11647;DHT22;5880;52.342;9.662;2022-10-14T13:02:13;19.70;63.30
11647;DHT22;5880;52.342;9.662;2022-10-14T13:04:48;19.70;63.30
11647;DHT22;5880;52.342;9.662;2022-10-14T13:09:43;19.70;63.60
11647;DHT22;5880;52.342;9.662;2022-10-14T13:15:48;19.70;63.10
11647;DHT22;5880;52.342;9.662;2022-10-14T13:20:53;19.80;62.70
11647;DHT22;5880;52.342;9.662;2022-10-14T13:25:51;19.80;63.30
11647;DHT22;5880;52.342;9.662;2022-10-14T13:28:39;19.80;63.30
11647;DHT22;5880;52.342;9.662;2022-10-14T13:31:22;19.80;62.80
11647;DHT22;5880;52.342;9.662;2022-10-14T13:37:30;19.70;62.80
11647;DHT22;5880;52.342;9.662;2022-10-14T13:42:47;19.80;63.00
11647;DHT22;5880;52.342;9.662;2022-10-14T13:45:16;19.80;63.10
11647;DHT22;5880;52.342;9.662;2022-10-14T13:47:47;19.80;63.10
11647;DHT22;5880;52.342;9.662;2022-10-14T13:50:22;19.70;63.10
11647;DHT22;5880;52.342;9.662;2022-10-14T13:53:02;19.80;63.00
11647;DHT22;5880;52.342;9.662;2022-10-14T13:55:30;19.80;62.90
11647;DHT22;5880;52.342;9.662;2022-10-14T13:58:00;19.80;63.20
11647;DHT22;5880;52.342;9.662;2022-10-14T14:01:02;19.80;63.10
11647;DHT22;5880;52.342;9.662;2022-10-14T14:03:39;19.80;63.20
11647;DHT22;5880;52.342;9.662;2022-10-14T14:06:15;19.80;63.10
11647;DHT22;5880;52.342;9.662;2022-10-14T14:08:57;19.80;63.10
11647;DHT22;5880;52.342;9.662;2022-10-14T14:11:28;19.80;63.20
11647;DHT22;5880;52.342;9.662;2022-10-14T14:17:00;19.80;63.10
11647;DHT22;5880;52.342;9.662;2022-10-14T14:19:31;19.80;63.00
11647;DHT22;5880;52.342;9.662;2022-10-14T14:24:31;19.80;63.00
11647;DHT22;5880;52.342;9.662;2022-10-14T14:26:59;19.80;63.20
11647;DHT22;5880;52.342;9.662;2022-10-14T14:29:28;19.70;63.20
11647;DHT22;5880;52.342;9.662;2022-10-14T14:31:58;19.70;63.10
11647;DHT22;5880;52.342;9.662;2022-10-14T14:34:25;19.70;63.20
11647;DHT22;5880;52.342;9.662;2022-10-14T14:36:51;19.70;63.20
11647;DHT22;5880;52.342;9.662;2022-10-14T14:39:25;19.70;63.30
11647;DHT22;5880;52.342;9.662;2022-10-14T14:41:55;19.70;63.20
11647;DHT22;5880;52.342;9.662;2022-10-14T14:44:25;19.70;63.20
11647;DHT22;5880;52.342;9.662;2022-10-14T14:46:57;19.70;63.20
11647;DHT22;5880;52.342;9.662;2022-10-14T14:49:31;19.70;63.20
11647;DHT22;5880;52.342;9.662;2022-10-14T14:51:59;19.70;63.20
11647;DHT22;5880;52.342;9.662;2022-10-14T14:54:26;19.60;63.20
11647;DHT22;5880;52.342;9.662;2022-10-14T14:59:36;19.60;63.30
11647;DHT22;5880;52.342;9.662;2022-10-14T15:02:17;19.70;63.40
11647;DHT22;5880;52.342;9.662;2022-10-14T15:04:45;19.60;63.20
11647;DHT22;5880;52.342;9.662;2022-10-14T15:07:17;19.60;63.30
11647;DHT22;5880;52.342;9.662;2022-10-14T15:09:58;19.60;63.30
11647;DHT22;5880;52.342;9.662;2022-10-14T15:12:30;19.60;63.40
11647;DHT22;5880;52.342;9.662;2022-10-14T15:15:05;19.60;63.40
11647;DHT22;5880;52.342;9.662;2022-10-14T15:18:13;19.60;63.40
11647;DHT22;5880;52.342;9.662;2022-10-14T15:20:44;19.60;63.40
11647;DHT22;5880;52.342;9.662;2022-10-14T15:31:36;19.50;63.50
11647;DHT22;5880;52.342;9.662;2022-10-14T15:34:04;19.50;63.60
11647;DHT22;5880;52.342;9.662;2022-10-14T15:36:38;19.60;63.60
11647;DHT22;5880;52.342;9.662;2022-10-14T15:39:04;19.50;63.60
11647;DHT22;5880;52.342;9.662;2022-10-14T15:41:30;19.50;63.60
11647;DHT22;5880;52.342;9.662;2022-10-14T15:43:55;19.50;63.60
11647;DHT22;5880;52.342;9.662;2022-10-14T15:46:21;19.50;63.70
11647;DHT22;5880;52.342;9.662;2022-10-14T15:49:14;19.40;63.60
11647;DHT22;5880;52.342;9.662;2022-10-14T15:51:49;19.50;64.30
11647;DHT22;5880;52.342;9.662;2022-10-14T15:54:15;19.40;63.50
11647;DHT22;5880;52.342;9.662;2022-10-14T15:56:41;19.40;63.60
11647;DHT22;5880;52.342;9.662;2022-10-14T15:59:07;19.40;63.70
11647;DHT22;5880;52.342;9.662;2022-10-14T16:01:36;19.50;63.80
11647;DHT22;5880;52.342;9.662;2022-10-14T16:04:02;19.40;63.70
11647;DHT22;5880;52.342;9.662;2022-10-14T16:06:29;19.40;64.50
11647;DHT22;5880;52.342;9.662;2022-10-14T16:08:57;19.40;63.70
11647;DHT22;5880;52.342;9.662;2022-10-14T16:11:27;19.40;63.70
11647;DHT22;5880;52.342;9.662;2022-10-14T16:13:55;19.40;63.80
11647;DHT22;5880;52.342;9.662;2022-10-14T16:16:25;19.40;63.80
11647;DHT22;5880;52.342;9.662;2022-10-14T16:18:57;19.30;63.90
11647;DHT22;5880;52.342;9.662;2022-10-14T16:21:26;19.40;63.80
11647;DHT22;5880;52.342;9.662;2022-10-14T16:23:56;19.30;63.90
11647;DHT22;5880;52.342;9.662;2022-10-14T16:26:23;19.30;63.90
11647;DHT22;5880;52.342;9.662;2022-10-14T16:28:50;19.30;63.90
11647;DHT22;5880;52.342;9.662;2022-10-14T16:31:16;19.30;64.00
11647;DHT22;5880;52.342;9.662;2022-10-14T16:33:42;19.30;64.00
11647;DHT22;5880;52.342;9.662;2022-10-14T16:36:14;19.30;64.10
11647;DHT22;5880;52.342;9.662;2022-10-14T16:38:40;19.20;64.30
11647;DHT22;5880;52.342;9.662;2022-10-14T16:41:06;19.20;64.20
11647;DHT22;5880;52.342;9.662;2022-10-14T16:43:34;19.20;64.20
11647;DHT22;5880;52.342;9.662;2022-10-14T16:46:01;19.20;64.20
11647;DHT22;5880;52.342;9.662;2022-10-14T16:48:32;19.20;64.40
11647;DHT22;5880;52.342;9.662;2022-10-14T16:50:59;19.20;64.50
11647;DHT22;5880;52.342;9.662;2022-10-14T16:53:25;19.10;64.50
11647;DHT22;5880;52.342;9.662;2022-10-14T16:56:17;19.10;64.60
11647;DHT22;5880;52.342;9.662;2022-10-14T16:59:02;19.10;64.90
11647;DHT22;5880;52.342;9.662;2022-10-14T17:01:29;19.10;64.60
11647;DHT22;5880;52.342;9.662;2022-10-14T17:03:56;19.00;64.70
11647;DHT22;5880;52.342;9.662;2022-10-14T17:06:23;19.00;64.80
11647;DHT22;5880;52.342;9.662;2022-10-14T17:08:50;19.00;64.80
11647;DHT22;5880;52.342;9.662;2022-10-14T17:11:16;19.00;64.90
11647;DHT22;5880;52.342;9.662;2022-10-14T17:13:42;18.90;65.00
11647;DHT22;5880;52.342;9.662;2022-10-14T17:16:09;18.90;65.00
11647;DHT22;5880;52.342;9.662;2022-10-14T17:18:35;18.90;65.20
11647;DHT22;5880;52.342;9.662;2022-10-14T17:21:03;18.90;65.30
11647;DHT22;5880;52.342;9.662;2022-10-14T17:23:31;18.90;65.40
11647;DHT22;5880;52.342;9.662;2022-10-14T17:25:59;18.80;65.30
11647;DHT22;5880;52.342;9.662;2022-10-14T17:28:26;18.80;65.50
11647;DHT22;5880;52.342;9.662;2022-10-14T17:30:51;18.80;65.60
11647;DHT22;5880;52.342;9.662;2022-10-14T17:33:17;18.80;65.60
11647;DHT22;5880;52.342;9.662;2022-10-14T17:35:44;18.70;66.50
11647;DHT22;5880;52.342;9.662;2022-10-14T17:38:09;18.70;65.80
11647;DHT22;5880;52.342;9.662;2022-10-14T17:40:35;18.70;65.90
11647;DHT22;5880;52.342;9.662;2022-10-14T17:43:01;18.70;65.90
11647;DHT22;5880;52.342;9.662;2022-10-14T17:45:29;18.70;66.80
11647;DHT22;5880;52.342;9.662;2022-10-14T17:47:55;18.60;66.10
11647;DHT22;5880;52.342;9.662;2022-10-14T17:50:21;18.60;66.10
11647;DHT22;5880;52.342;9.662;2022-10-14T17:52:50;18.60;66.20
11647;DHT22;5880;52.342;9.662;2022-10-14T17:55:16;18.60;66.30
11647;DHT22;5880;52.342;9.662;2022-10-14T17:57:43;18.50;66.40
11647;DHT22;5880;52.342;9.662;2022-10-14T18:00:09;18.50;66.40
11647;DHT22;5880;52.342;9.662;2022-10-14T18:02:35;18.50;66.60